Time;durP1;ratioP1;P1;durP2;ratioP2;P2;SDS_P1;SDS_P2;PMS_P1;PMS_P2;Temp;Humidity;BMP_temperature;BMP_pressure;BME280_temperature;BME280_humidity;BME280_pressure;Samples;Min_cycle;Max_cycle;Signal;HPM_P1;HPM_P2
2021/12/28 00:00:20;;;;;;;46.65;10.80;;;9.60;99.90;;;;;;5083101;28;20032;-74
2021/12/28 00:02:48;;;;;;;46.17;10.80;;;9.70;99.90;;;;;;5072790;28;20081;-75
2021/12/28 00:05:14;;;;;;;38.17;10.23;;;9.70;99.90;;;;;;5078759;28;20020;-75
2021/12/28 00:07:40;;;;;;;39.35;8.90;;;9.60;99.90;;;;;;5079294;28;20033;-75
2021/12/28 00:10:09;;;;;;;39.88;9.40;;;9.60;99.90;;;;;;5084387;28;20473;-75
2021/12/28 00:12:37;;;;;;;41.95;8.63;;;9.60;99.90;;;;;;5080358;28;20025;-75
2021/12/28 00:18:03;;;;;;;53.00;9.38;;;9.40;99.90;;;;;;5045965;28;20081;-75
2021/12/28 00:20:52;;;;;;;42.08;9.32;;;9.50;99.90;;;;;;5079713;28;20547;-76
2021/12/28 00:23:24;;;;;;;40.78;8.95;;;9.50;99.90;;;;;;5076558;28;20719;-75
2021/12/28 00:25:52;;;;;;;49.63;10.18;;;9.50;99.90;;;;;;5081947;28;20158;-75
2021/12/28 00:28:19;;;;;;;41.95;8.15;;;9.50;99.90;;;;;;5078154;28;20399;-75
2021/12/28 00:30:47;;;;;;;44.55;9.77;;;9.50;99.90;;;;;;5079124;28;20499;-75
2021/12/28 00:33:13;;;;;;;46.15;9.10;;;9.50;99.90;;;;;;5079414;28;20485;-75
2021/12/28 00:35:41;;;;;;;39.63;9.20;;;9.50;99.90;;;;;;5075766;28;20170;-76
2021/12/28 00:38:10;;;;;;;36.63;8.40;;;9.50;99.90;;;;;;5073996;28;20031;-75
2021/12/28 00:40:36;;;;;;;32.90;8.18;;;9.50;99.90;;;;;;5077853;28;20031;-75
2021/12/28 00:43:02;;;;;;;41.28;8.98;;;9.40;99.90;;;;;;5080238;28;20030;-75
2021/12/28 00:45:28;;;;;;;43.10;8.43;;;9.50;99.90;;;;;;5081491;28;20041;-75
2021/12/28 00:47:54;;;;;;;55.28;9.80;;;9.40;99.90;;;;;;5080532;28;20028;-76
2021/12/28 00:50:20;;;;;;;43.55;8.90;;;9.40;99.90;;;;;;5077331;28;20663;-76
2021/12/28 00:52:46;;;;;;;48.03;8.80;;;9.30;99.90;;;;;;5076474;28;20095;-75
2021/12/28 00:55:14;;;;;;;57.03;9.73;;;9.30;99.90;;;;;;5080202;28;20170;-75
2021/12/28 00:57:40;;;;;;;63.05;8.70;;;9.30;99.90;;;;;;5080269;28;20467;-75
2021/12/28 01:00:09;;;;;;;40.95;9.43;;;9.30;99.90;;;;;;5082563;28;20054;-75
2021/12/28 01:02:35;;;;;;;42.30;9.45;;;9.30;99.90;;;;;;5082041;28;20016;-75
2021/12/28 01:05:01;;;;;;;52.92;9.35;;;9.20;99.90;;;;;;5083407;28;20450;-76
2021/12/28 01:07:26;;;;;;;45.30;8.35;;;9.30;99.90;;;;;;5080092;28;20047;-76
2021/12/28 01:09:52;;;;;;;47.95;9.30;;;9.20;99.90;;;;;;5069629;28;20021;-75
2021/12/28 01:12:18;;;;;;;54.47;9.45;;;9.20;99.90;;;;;;5088924;28;20491;-75
2021/12/28 01:14:45;;;;;;;37.95;8.93;;;9.20;99.90;;;;;;5083954;28;20106;-75
2021/12/28 01:17:10;;;;;;;45.00;8.05;;;9.10;99.90;;;;;;5084743;28;20119;-75
2021/12/28 01:19:36;;;;;;;37.20;8.25;;;9.20;99.90;;;;;;5088774;28;20112;-76
2021/12/28 01:22:02;;;;;;;29.65;7.93;;;9.20;99.90;;;;;;5083850;28;20028;-76
2021/12/28 01:24:30;;;;;;;47.47;9.88;;;9.30;99.90;;;;;;5084893;28;20572;-75
2021/12/28 01:26:56;;;;;;;50.00;9.68;;;9.30;99.90;;;;;;5085394;28;20028;-75
2021/12/28 01:29:21;;;;;;;55.75;9.48;;;9.30;99.90;;;;;;5082746;28;20024;-76
2021/12/28 01:31:47;;;;;;;44.10;9.00;;;9.40;99.90;;;;;;5079557;28;20032;-76
2021/12/28 01:34:13;;;;;;;46.10;7.47;;;9.30;99.90;;;;;;5087637;28;20028;-76
2021/12/28 01:36:39;;;;;;;50.75;8.48;;;9.30;99.90;;;;;;5086218;28;20073;-76
2021/12/28 01:39:07;;;;;;;51.45;8.63;;;9.40;99.90;;;;;;5086750;28;20031;-75
2021/12/28 01:41:33;;;;;;;52.28;9.50;;;9.40;99.90;;;;;;5089761;28;20047;-75
2021/12/28 01:44:05;;;;;;;48.30;8.40;;;9.40;99.90;;;;;;5085774;28;20032;-75
2021/12/28 01:46:33;;;;;;;44.42;9.20;;;9.40;99.90;;;;;;5083539;28;20029;-75
2021/12/28 01:48:58;;;;;;;42.03;8.60;;;9.50;99.90;;;;;;5080233;28;20024;-75
2021/12/28 01:51:27;;;;;;;52.72;8.90;;;9.50;99.90;;;;;;5086594;28;20028;-75
2021/12/28 01:53:56;;;;;;;48.28;8.98;;;9.50;99.90;;;;;;5087054;28;20488;-75
2021/12/28 01:56:34;;;;;;;46.58;8.88;;;9.50;99.90;;;;;;5082123;28;20036;-75
2021/12/28 01:59:00;;;;;;;56.65;9.27;;;9.60;99.90;;;;;;5081654;28;20024;-75
2021/12/28 02:01:26;;;;;;;51.53;8.30;;;9.60;99.90;;;;;;5087758;28;20052;-75
2021/12/28 02:03:53;;;;;;;46.08;8.25;;;9.70;99.90;;;;;;5087709;28;20396;-75
2021/12/28 02:06:19;;;;;;;63.58;9.52;;;9.70;99.90;;;;;;5082461;28;20445;-75
2021/12/28 02:08:45;;;;;;;44.33;8.85;;;9.80;99.90;;;;;;5077259;28;20089;-75
2021/12/28 02:11:12;;;;;;;40.65;7.50;;;9.80;99.90;;;;;;5081755;28;20048;-75
2021/12/28 02:13:39;;;;;;;44.00;7.53;;;9.80;99.90;;;;;;5086358;28;20025;-76
2021/12/28 02:16:05;;;;;;;56.50;7.75;;;9.80;99.90;;;;;;5086293;28;20430;-75
2021/12/28 02:18:32;;;;;;;50.67;8.60;;;9.90;99.90;;;;;;5082407;28;20115;-75
2021/12/28 02:21:00;;;;;;;43.75;6.80;;;9.90;99.90;;;;;;5086835;28;20115;-75
2021/12/28 02:23:26;;;;;;;37.00;7.60;;;9.90;99.90;;;;;;5084625;28;20025;-75
2021/12/28 02:25:53;;;;;;;42.88;8.07;;;10.00;99.90;;;;;;5087682;28;20036;-75
2021/12/28 02:28:19;;;;;;;41.45;7.07;;;10.10;99.90;;;;;;5083710;28;20027;-75
2021/12/28 02:30:47;;;;;;;49.55;10.80;;;10.10;99.90;;;;;;5077770;28;20036;-75
2021/12/28 02:33:13;;;;;;;46.38;7.68;;;10.10;99.90;;;;;;5084174;28;20504;-75
2021/12/28 02:35:40;;;;;;;49.08;8.57;;;10.20;99.90;;;;;;5084335;28;20036;-76
2021/12/28 02:38:10;;;;;;;39.83;6.38;;;10.20;99.90;;;;;;5085956;28;20028;-76
2021/12/28 02:40:37;;;;;;;46.97;7.55;;;10.10;99.90;;;;;;5083733;28;20024;-76
2021/12/28 02:43:06;;;;;;;30.55;6.72;;;10.20;99.90;;;;;;5082405;28;20037;-76
2021/12/28 02:45:36;;;;;;;49.00;7.22;;;10.20;99.90;;;;;;5082975;28;20181;-75
2021/12/28 02:48:03;;;;;;;42.75;6.38;;;10.20;99.90;;;;;;5079109;28;20028;-75
2021/12/28 02:50:33;;;;;;;41.90;6.53;;;10.20;99.90;;;;;;5085812;28;20016;-75
2021/12/28 02:52:59;;;;;;;33.67;5.43;;;10.20;99.90;;;;;;5088286;28;20036;-75
2021/12/28 02:55:28;;;;;;;38.30;6.90;;;10.20;99.90;;;;;;5078486;28;20033;-75
2021/12/28 02:57:57;;;;;;;40.80;6.53;;;10.20;99.90;;;;;;5082814;28;20027;-75
2021/12/28 03:00:32;;;;;;;34.88;6.03;;;10.20;99.90;;;;;;5086533;28;20530;-75
2021/12/28 03:02:58;;;;;;;45.03;6.82;;;10.20;99.90;;;;;;5083570;28;20101;-75
2021/12/28 03:05:24;;;;;;;47.00;7.00;;;10.20;99.90;;;;;;5082912;28;20043;-75
2021/12/28 03:07:50;;;;;;;44.90;6.22;;;10.20;99.90;;;;;;5076078;28;20024;-75
2021/12/28 03:10:15;;;;;;;34.90;5.00;;;10.20;99.90;;;;;;5080342;28;20086;-75
2021/12/28 03:12:41;;;;;;;27.85;6.32;;;10.10;99.90;;;;;;5075987;28;20103;-75
2021/12/28 03:15:07;;;;;;;35.75;5.75;;;10.20;99.90;;;;;;5087319;28;20060;-75
2021/12/28 03:17:33;;;;;;;36.13;6.43;;;10.20;99.90;;;;;;5081874;28;20036;-75
2021/12/28 03:19:58;;;;;;;42.45;6.57;;;10.20;99.90;;;;;;5084787;28;20028;-75
2021/12/28 03:22:24;;;;;;;27.80;6.82;;;10.20;99.90;;;;;;5086652;28;20033;-75
2021/12/28 03:24:50;;;;;;;37.92;5.18;;;10.20;99.90;;;;;;5083298;28;20593;-75
2021/12/28 03:27:15;;;;;;;37.25;5.10;;;10.20;99.90;;;;;;5078830;28;20108;-75
2021/12/28 03:29:41;;;;;;;34.40;6.05;;;10.10;99.90;;;;;;5079581;28;20033;-75
2021/12/28 03:32:07;;;;;;;34.90;6.25;;;10.10;99.90;;;;;;5080585;28;20030;-75
2021/12/28 03:34:33;;;;;;;50.03;6.35;;;10.10;99.90;;;;;;5081953;28;20020;-75
2021/12/28 03:36:59;;;;;;;31.83;5.22;;;10.10;99.90;;;;;;5079237;28;20036;-76
2021/12/28 03:39:24;;;;;;;38.17;6.70;;;10.20;99.90;;;;;;5084112;28;20069;-75
2021/12/28 03:41:50;;;;;;;27.90;5.80;;;10.10;99.90;;;;;;5084082;28;20046;-75
2021/12/28 03:44:16;;;;;;;38.83;5.80;;;10.10;99.90;;;;;;5084901;28;20024;-75
2021/12/28 03:46:41;;;;;;;44.10;6.63;;;10.20;99.90;;;;;;5080787;28;20024;-75
2021/12/28 03:49:07;;;;;;;36.35;4.75;;;10.10;99.90;;;;;;5080944;28;20508;-74
2021/12/28 03:51:32;;;;;;;28.05;5.35;;;10.10;99.90;;;;;;5080731;28;20031;-74
2021/12/28 03:53:58;;;;;;;35.90;5.93;;;10.10;99.90;;;;;;5078160;28;20376;-74
2021/12/28 03:56:24;;;;;;;28.45;4.90;;;10.20;99.90;;;;;;5080273;28;20528;-75
2021/12/28 03:58:51;;;;;;;40.30;5.78;;;10.10;99.90;;;;;;5083248;28;20145;-75
2021/12/28 04:01:21;;;;;;;25.80;5.97;;;10.20;99.90;;;;;;5083396;28;20032;-75
2021/12/28 04:03:47;;;;;;;30.65;4.80;;;10.20;99.90;;;;;;5079495;28;20020;-75
2021/12/28 04:06:13;;;;;;;28.83;6.85;;;10.20;99.90;;;;;;5080014;28;20054;-75
2021/12/28 04:08:41;;;;;;;26.77;4.30;;;10.20;99.90;;;;;;5079645;28;20021;-76
2021/12/28 04:11:15;;;;;;;25.35;4.35;;;10.20;99.90;;;;;;5082143;28;20024;-76
2021/12/28 04:13:44;;;;;;;28.35;4.32;;;10.20;99.90;;;;;;5078896;28;20023;-75
2021/12/28 04:16:10;;;;;;;30.73;4.38;;;10.20;99.90;;;;;;5087412;28;20115;-75
2021/12/28 04:18:37;;;;;;;27.58;4.80;;;10.20;99.90;;;;;;5076286;28;20072;-75
2021/12/28 04:21:02;;;;;;;19.08;3.58;;;10.20;99.90;;;;;;5085556;28;20032;-76
2021/12/28 04:23:28;;;;;;;18.30;3.78;;;10.30;99.90;;;;;;5078851;28;20030;-76
2021/12/28 04:25:54;;;;;;;25.38;8.23;;;10.30;99.90;;;;;;5078507;28;20032;-75
2021/12/28 04:28:20;;;;;;;16.52;3.10;;;10.30;99.90;;;;;;5077896;28;20104;-75
2021/12/28 04:30:46;;;;;;;19.08;3.72;;;10.40;99.90;;;;;;5086292;28;20447;-75
2021/12/28 04:33:11;;;;;;;27.75;3.85;;;10.40;99.90;;;;;;5078848;28;20427;-76
2021/12/28 04:35:37;;;;;;;20.33;4.28;;;10.50;99.90;;;;;;5085669;28;20052;-76
2021/12/28 04:38:03;;;;;;;29.92;3.47;;;10.50;99.90;;;;;;5087111;28;20028;-77
2021/12/28 04:40:29;;;;;;;18.05;3.10;;;10.50;99.90;;;;;;5091405;28;20030;-77
2021/12/28 04:42:55;;;;;;;25.50;7.78;;;10.50;99.90;;;;;;5089578;28;20024;-77
2021/12/28 04:45:21;;;;;;;19.85;3.70;;;10.50;99.90;;;;;;5085707;28;20028;-77
2021/12/28 04:47:47;;;;;;;17.83;3.05;;;10.40;99.90;;;;;;5081987;28;20059;-76
2021/12/28 04:50:13;;;;;;;27.50;3.60;;;10.50;99.90;;;;;;5089846;28;20024;-76
2021/12/28 04:52:40;;;;;;;24.95;3.15;;;10.40;99.90;;;;;;5087173;28;20031;-76
2021/12/28 04:55:12;;;;;;;22.63;3.17;;;10.40;99.90;;;;;;5089734;28;20084;-76
2021/12/28 04:57:38;;;;;;;17.88;3.03;;;10.40;99.90;;;;;;5087844;28;20046;-76
2021/12/28 05:00:07;;;;;;;22.40;3.53;;;10.50;99.90;;;;;;5088660;28;20061;-76
2021/12/28 05:02:33;;;;;;;24.65;4.00;;;10.50;99.90;;;;;;5087737;28;20063;-76
2021/12/28 05:04:59;;;;;;;17.45;3.20;;;10.50;99.90;;;;;;5092334;28;20063;-76
2021/12/28 05:07:24;;;;;;;17.27;3.10;;;10.50;99.90;;;;;;5084121;28;20032;-76
2021/12/28 05:09:50;;;;;;;21.10;2.97;;;10.50;99.90;;;;;;5080890;28;20504;-76
2021/12/28 05:12:16;;;;;;;24.02;4.20;;;10.50;99.90;;;;;;5081084;28;20489;-76
2021/12/28 05:14:42;;;;;;;16.92;3.53;;;10.50;99.90;;;;;;5092038;28;20028;-75
2021/12/28 05:17:08;;;;;;;19.58;2.90;;;10.50;99.90;;;;;;5088453;28;20062;-75
2021/12/28 05:19:34;;;;;;;28.25;11.40;;;10.50;99.90;;;;;;5085430;28;20024;-75
2021/12/28 05:22:00;;;;;;;14.60;2.83;;;10.60;99.90;;;;;;5085376;28;20032;-75
2021/12/28 05:24:26;;;;;;;16.25;2.47;;;10.60;99.90;;;;;;5094426;28;20105;-75
2021/12/28 05:26:52;;;;;;;16.25;3.20;;;10.60;99.90;;;;;;5086640;28;20107;-75
2021/12/28 05:29:18;;;;;;;16.83;2.85;;;10.60;99.90;;;;;;5085245;28;20024;-75
2021/12/28 05:31:44;;;;;;;16.33;7.35;;;10.60;99.90;;;;;;5084509;28;20500;-75
2021/12/28 05:34:10;;;;;;;17.92;2.78;;;10.60;99.90;;;;;;5081647;28;20116;-75
2021/12/28 05:36:36;;;;;;;16.05;2.25;;;10.60;99.90;;;;;;5078503;28;20040;-75
2021/12/28 05:39:04;;;;;;;14.88;2.30;;;10.60;99.90;;;;;;5082770;28;20472;-75
2021/12/28 05:41:30;;;;;;;13.93;2.70;;;10.60;99.90;;;;;;5084933;28;20107;-75
2021/12/28 05:43:55;;;;;;;13.40;2.30;;;10.50;99.90;;;;;;5082388;28;20099;-75
2021/12/28 05:46:21;;;;;;;14.65;3.08;;;10.50;99.90;;;;;;5086509;28;20025;-75
2021/12/28 05:48:47;;;;;;;13.20;2.15;;;10.50;99.90;;;;;;5083860;28;20067;-75
2021/12/28 05:51:14;;;;;;;12.82;2.50;;;10.50;99.90;;;;;;5083306;28;20023;-75
2021/12/28 05:53:40;;;;;;;12.20;2.03;;;10.50;99.90;;;;;;5079240;28;20089;-75
2021/12/28 05:56:06;;;;;;;12.95;2.20;;;10.50;99.90;;;;;;5084596;28;20481;-76
2021/12/28 05:58:32;;;;;;;18.05;1.98;;;10.50;99.90;;;;;;5078419;28;20044;-75
2021/12/28 06:00:57;;;;;;;14.73;2.38;;;10.50;99.90;;;;;;5078444;28;20032;-75
2021/12/28 06:03:23;;;;;;;11.02;2.38;;;10.50;99.90;;;;;;5082706;28;20388;-75
2021/12/28 06:05:49;;;;;;;11.48;2.05;;;10.50;99.90;;;;;;5085786;28;20024;-75
2021/12/28 06:08:15;;;;;;;11.90;2.67;;;10.50;99.90;;;;;;5084102;28;20055;-75
2021/12/28 06:10:40;;;;;;;11.48;1.92;;;10.60;99.90;;;;;;5089667;28;20023;-75
2021/12/28 06:13:06;;;;;;;9.10;2.63;;;10.60;99.90;;;;;;5083681;28;20033;-75
2021/12/28 06:15:32;;;;;;;7.88;1.63;;;10.60;99.90;;;;;;5078769;28;20032;-75
2021/12/28 06:17:58;;;;;;;7.85;1.55;;;10.60;99.90;;;;;;5086429;28;20044;-75
2021/12/28 06:20:23;;;;;;;6.93;1.67;;;10.60;99.90;;;;;;5083306;28;20392;-75
2021/12/28 06:22:49;;;;;;;10.75;2.05;;;10.70;99.90;;;;;;5085449;28;20456;-75
2021/12/28 06:25:15;;;;;;;8.50;1.63;;;10.70;99.90;;;;;;5091018;28;20025;-75
2021/12/28 06:27:40;;;;;;;9.45;1.95;;;10.70;99.90;;;;;;5086656;28;20406;-75
2021/12/28 06:30:07;;;;;;;8.70;1.75;;;10.70;99.90;;;;;;5082796;28;20191;-76
2021/12/28 06:32:32;;;;;;;8.82;1.80;;;10.70;99.90;;;;;;5083937;28;20032;-76
2021/12/28 06:34:58;;;;;;;10.45;1.70;;;10.70;99.90;;;;;;5078681;28;20161;-75
2021/12/28 06:37:24;;;;;;;4.50;1.40;;;10.70;99.90;;;;;;5080397;28;20043;-75
2021/12/28 06:39:49;;;;;;;11.63;2.17;;;10.70;99.90;;;;;;5085235;28;20509;-75
2021/12/28 06:42:15;;;;;;;6.50;1.60;;;10.60;99.90;;;;;;5084727;28;20464;-75
2021/12/28 06:44:44;;;;;;;9.90;2.17;;;10.60;99.90;;;;;;5091379;28;20048;-75
2021/12/28 06:47:09;;;;;;;11.10;2.13;;;10.60;99.90;;;;;;5081786;28;20024;-75
2021/12/28 06:49:35;;;;;;;7.90;1.70;;;10.60;99.90;;;;;;5082883;28;20400;-75
2021/12/28 06:52:01;;;;;;;8.70;1.77;;;10.60;99.90;;;;;;5080989;28;20093;-75
2021/12/28 06:54:26;;;;;;;12.30;1.70;;;10.50;99.90;;;;;;5084702;28;20384;-75
2021/12/28 06:56:52;;;;;;;6.75;1.77;;;10.60;99.90;;;;;;5080141;28;20043;-76
2021/12/28 06:59:19;;;;;;;10.98;1.83;;;10.60;99.90;;;;;;5084541;28;20020;-75
2021/12/28 07:01:44;;;;;;;8.88;2.08;;;10.60;99.90;;;;;;5084197;28;20024;-75
2021/12/28 07:04:10;;;;;;;7.53;1.40;;;10.70;99.90;;;;;;5081271;28;20040;-75
2021/12/28 07:06:36;;;;;;;7.18;1.73;;;10.60;99.90;;;;;;5080285;28;20566;-75
2021/12/28 07:09:02;;;;;;;10.23;2.80;;;10.70;99.90;;;;;;5086752;28;20043;-75
2021/12/28 07:11:28;;;;;;;8.90;3.20;;;10.60;99.90;;;;;;5089814;28;20020;-75
2021/12/28 07:13:53;;;;;;;8.75;3.53;;;10.70;99.90;;;;;;5079679;28;20460;-75
2021/12/28 07:16:19;;;;;;;12.85;4.25;;;10.60;99.90;;;;;;5078853;28;20484;-76
2021/12/28 07:18:45;;;;;;;11.05;2.92;;;10.70;99.90;;;;;;5078602;28;20362;-76
2021/12/28 07:21:11;;;;;;;7.47;2.90;;;10.70;99.90;;;;;;5085037;28;20031;-76
2021/12/28 07:23:36;;;;;;;11.63;2.33;;;10.80;99.90;;;;;;5084772;28;20766;-76
2021/12/28 07:26:02;;;;;;;6.63;2.60;;;10.70;99.90;;;;;;5077654;28;20036;-75
2021/12/28 07:28:28;;;;;;;9.07;1.90;;;10.80;99.90;;;;;;5079012;28;20099;-76
2021/12/28 07:30:55;;;;;;;5.20;3.00;;;10.70;99.90;;;;;;5083682;28;20024;-76
2021/12/28 07:33:21;;;;;;;11.43;2.08;;;10.70;99.90;;;;;;5079527;28;20602;-76
2021/12/28 07:35:47;;;;;;;5.50;2.03;;;10.60;99.90;;;;;;5078363;28;20200;-77
2021/12/28 07:38:13;;;;;;;9.48;2.15;;;10.70;99.90;;;;;;5079170;28;20040;-77
2021/12/28 07:40:39;;;;;;;7.90;2.33;;;10.70;99.90;;;;;;5086262;28;20027;-76
2021/12/28 07:43:05;;;;;;;8.18;2.03;;;10.70;99.90;;;;;;5088369;28;20042;-76
2021/12/28 07:45:31;;;;;;;6.82;2.03;;;10.70;99.90;;;;;;5088969;28;20033;-77
2021/12/28 07:47:57;;;;;;;6.78;2.28;;;10.70;99.90;;;;;;5083591;28;20037;-76
2021/12/28 07:50:22;;;;;;;9.00;2.67;;;10.70;99.90;;;;;;5076183;28;20028;-76
2021/12/28 07:52:49;;;;;;;11.88;3.78;;;10.80;99.90;;;;;;5079917;28;20475;-77
2021/12/28 07:55:16;;;;;;;7.78;1.90;;;10.80;99.90;;;;;;5080600;28;20047;-77
2021/12/28 07:57:42;;;;;;;5.63;2.00;;;10.70;99.90;;;;;;5076730;28;20063;-77
2021/12/28 08:00:12;;;;;;;8.00;2.60;;;10.70;99.90;;;;;;5079416;28;20021;-77
2021/12/28 08:02:39;;;;;;;6.03;2.42;;;10.70;99.90;;;;;;5085179;28;20094;-76
2021/12/28 08:05:05;;;;;;;6.43;2.67;;;10.70;99.90;;;;;;5078403;28;20037;-77
2021/12/28 08:07:31;;;;;;;8.45;3.63;;;10.70;99.90;;;;;;5086254;28;20473;-77
2021/12/28 08:09:58;;;;;;;6.65;2.95;;;10.70;99.90;;;;;;5081346;28;20046;-76
2021/12/28 08:12:24;;;;;;;9.40;3.30;;;10.70;99.90;;;;;;5078046;28;20023;-76
2021/12/28 08:14:49;;;;;;;5.97;3.13;;;10.70;99.90;;;;;;5083977;28;20032;-76
2021/12/28 08:17:15;;;;;;;6.10;3.13;;;10.70;99.90;;;;;;5080483;28;20036;-76
2021/12/28 08:19:40;;;;;;;8.27;3.22;;;10.70;99.90;;;;;;5081963;28;20024;-76
2021/12/28 08:22:06;;;;;;;7.03;2.78;;;10.70;99.90;;;;;;5076361;28;20101;-76
2021/12/28 08:24:34;;;;;;;8.05;3.40;;;10.70;99.90;;;;;;5076329;28;20052;-75
2021/12/28 08:27:00;;;;;;;7.95;3.30;;;10.80;99.90;;;;;;5074962;28;20028;-75
2021/12/28 08:29:26;;;;;;;8.27;3.75;;;10.80;99.90;;;;;;5081043;28;20021;-75
2021/12/28 08:31:52;;;;;;;7.68;3.70;;;10.80;99.90;;;;;;5087913;28;20016;-75
2021/12/28 08:34:17;;;;;;;7.53;4.00;;;10.80;99.90;;;;;;5083712;28;20461;-75
2021/12/28 08:36:43;;;;;;;6.43;3.72;;;10.80;99.90;;;;;;5084709;28;20119;-75
2021/12/28 08:39:09;;;;;;;5.30;3.70;;;10.80;99.90;;;;;;5080126;28;20020;-76
2021/12/28 08:41:35;;;;;;;8.38;4.50;;;10.90;99.90;;;;;;5081834;28;20028;-76
2021/12/28 08:44:00;;;;;;;14.52;4.68;;;10.90;99.90;;;;;;5077976;28;20031;-75
2021/12/28 08:46:26;;;;;;;7.20;4.15;;;10.90;99.90;;;;;;5082046;28;20103;-76
2021/12/28 08:48:52;;;;;;;7.75;4.68;;;10.90;99.90;;;;;;5082972;28;20012;-76
2021/12/28 08:51:18;;;;;;;6.13;3.75;;;10.90;99.90;;;;;;5082539;28;20019;-76
2021/12/28 08:53:44;;;;;;;6.93;4.20;;;11.00;99.90;;;;;;5083278;28;20032;-76
2021/12/28 08:56:09;;;;;;;6.70;3.90;;;11.00;99.90;;;;;;5080947;28;20036;-76
2021/12/28 08:58:35;;;;;;;9.93;3.88;;;11.00;99.90;;;;;;5099851;28;20027;-76
2021/12/28 09:01:01;;;;;;;6.95;4.00;;;11.00;99.90;;;;;;5084410;28;20036;-76
2021/12/28 09:03:27;;;;;;;7.35;3.72;;;11.10;99.90;;;;;;5079687;28;20024;-76
2021/12/28 09:05:52;;;;;;;6.20;4.07;;;11.10;99.90;;;;;;5081935;28;20056;-78
2021/12/28 09:08:19;;;;;;;5.65;4.10;;;11.00;99.90;;;;;;5079949;28;20499;-80
2021/12/28 09:10:45;;;;;;;6.15;4.30;;;11.10;99.90;;;;;;5085540;28;20024;-80
2021/12/28 09:13:13;;;;;;;6.35;3.78;;;11.20;99.90;;;;;;5079482;28;20089;-79
2021/12/28 09:15:39;;;;;;;8.13;4.13;;;11.10;99.90;;;;;;5081563;28;20044;-77
2021/12/28 09:18:04;;;;;;;4.30;3.90;;;11.20;99.90;;;;;;5083996;28;20499;-77
2021/12/28 09:20:31;;;;;;;4.53;4.00;;;11.20;99.90;;;;;;5082001;28;20103;-77
2021/12/28 09:22:57;;;;;;;5.65;4.53;;;11.20;99.90;;;;;;5078602;28;20440;-77
2021/12/28 09:25:23;;;;;;;6.80;3.95;;;11.20;99.90;;;;;;5080079;28;20048;-76
2021/12/28 09:27:53;;;;;;;5.53;4.10;;;11.20;99.90;;;;;;5082085;28;20046;-78
2021/12/28 09:30:19;;;;;;;4.72;3.42;;;11.20;99.90;;;;;;5077150;28;20077;-78
2021/12/28 09:32:45;;;;;;;4.25;3.20;;;11.20;99.90;;;;;;5084461;28;20906;-77
2021/12/28 09:35:11;;;;;;;5.35;3.40;;;11.20;99.90;;;;;;5081528;28;20024;-77
2021/12/28 09:37:37;;;;;;;4.55;3.67;;;11.20;99.90;;;;;;5079294;28;20048;-79
2021/12/28 09:40:08;;;;;;;4.60;4.18;;;11.30;99.90;;;;;;5079074;28;20025;-79
2021/12/28 09:42:34;;;;;;;6.05;2.97;;;11.30;99.90;;;;;;5084900;28;20032;-79
2021/12/28 09:44:59;;;;;;;3.75;3.30;;;11.30;99.90;;;;;;5080563;28;20013;-78
2021/12/28 09:47:25;;;;;;;6.78;4.10;;;11.30;99.90;;;;;;5081994;28;20032;-77
2021/12/28 09:49:51;;;;;;;6.47;3.67;;;11.40;99.90;;;;;;5078932;28;20174;-77
2021/12/28 09:52:17;;;;;;;4.82;3.60;;;11.40;99.90;;;;;;5081444;28;20046;-77
2021/12/28 09:54:44;;;;;;;4.57;3.63;;;11.40;99.90;;;;;;5076289;28;20434;-77
2021/12/28 09:57:14;;;;;;;4.95;3.13;;;11.40;99.90;;;;;;5082075;28;20032;-78
2021/12/28 09:59:40;;;;;;;4.72;3.65;;;11.40;99.90;;;;;;5078609;28;20024;-78
2021/12/28 10:02:10;;;;;;;9.43;3.83;;;11.40;99.90;;;;;;5081538;28;20078;-77
2021/12/28 10:04:56;;;;;;;4.60;3.08;;;11.50;99.90;;;;;;5077110;28;20124;-77
2021/12/28 10:07:28;;;;;;;6.05;3.30;;;11.40;99.90;;;;;;5082312;28;20046;-75
2021/12/28 10:09:54;;;;;;;4.70;3.10;;;11.40;99.90;;;;;;5078602;28;20047;-76
2021/12/28 10:12:54;;;;;;;5.95;3.80;;;11.40;99.90;;;;;;5077687;28;20025;-75
2021/12/28 10:15:25;;;;;;;5.03;3.42;;;11.40;99.90;;;;;;5049909;28;20051;-76
2021/12/28 10:17:55;;;;;;;5.72;3.85;;;11.50;99.90;;;;;;5083191;28;20118;-77
2021/12/28 10:20:25;;;;;;;7.57;4.18;;;11.50;99.90;;;;;;5083011;28;20028;-77
2021/12/28 10:22:58;;;;;;;4.47;3.05;;;11.60;99.90;;;;;;5086844;28;20016;-78
2021/12/28 10:25:31;;;;;;;3.30;3.00;;;11.50;99.90;;;;;;5084075;28;20027;-78
2021/12/28 10:28:06;;;;;;;7.10;5.18;;;11.60;99.90;;;;;;5082989;28;20034;-77
2021/12/28 10:30:45;;;;;;;3.90;3.60;;;11.60;99.90;;;;;;5080570;28;20099;-77
2021/12/28 10:33:17;;;;;;;3.20;2.92;;;11.60;99.90;;;;;;5079920;28;20508;-77
2021/12/28 10:35:47;;;;;;;4.25;3.58;;;11.60;99.90;;;;;;5082235;28;20472;-77
2021/12/28 10:38:19;;;;;;;3.70;3.40;;;11.60;99.90;;;;;;5080214;28;20020;-77
2021/12/28 10:40:51;;;;;;;4.05;3.75;;;11.60;99.90;;;;;;5081543;28;20016;-77
2021/12/28 10:43:19;;;;;;;4.72;3.72;;;11.60;99.90;;;;;;5089424;28;20388;-77
2021/12/28 10:45:47;;;;;;;4.70;4.18;;;11.60;99.90;;;;;;5082636;28;20038;-77
2021/12/28 10:48:18;;;;;;;4.63;4.22;;;11.60;99.90;;;;;;5079821;28;20034;-77
2021/12/28 10:50:43;;;;;;;4.85;3.70;;;11.70;99.90;;;;;;5083383;28;20397;-79
2021/12/28 10:53:26;;;;;;;4.35;3.65;;;11.70;99.90;;;;;;5079550;28;20024;-79
2021/12/28 10:55:59;;;;;;;4.93;3.47;;;11.60;99.90;;;;;;5077782;28;20029;-80
2021/12/28 10:58:54;;;;;;;4.85;4.03;;;11.60;99.90;;;;;;5083387;28;20051;-79
2021/12/28 11:01:22;;;;;;;6.80;3.97;;;11.70;99.90;;;;;;5073109;28;20041;-79
2021/12/28 11:03:50;;;;;;;5.97;3.95;;;11.70;99.90;;;;;;5079194;28;20089;-78
2021/12/28 11:06:18;;;;;;;5.78;4.05;;;11.70;99.90;;;;;;5077678;28;20032;-78
2021/12/28 11:08:47;;;;;;;6.40;4.13;;;11.70;99.90;;;;;;5078504;28;20028;-78
2021/12/28 11:11:16;;;;;;;6.18;3.60;;;11.70;99.90;;;;;;5077323;28;20024;-78
2021/12/28 11:13:42;;;;;;;4.53;4.13;;;11.80;99.90;;;;;;5079175;28;20041;-77
2021/12/28 11:16:11;;;;;;;4.85;3.10;;;11.80;99.90;;;;;;5079662;28;20033;-78
2021/12/28 11:18:43;;;;;;;5.22;3.65;;;11.80;99.90;;;;;;5082500;28;20107;-78
2021/12/28 11:21:33;;;;;;;5.93;3.80;;;11.80;99.90;;;;;;5083096;28;20485;-78
2021/12/28 11:24:05;;;;;;;4.03;3.13;;;11.80;99.90;;;;;;5081801;28;20055;-77
2021/12/28 11:26:41;;;;;;;3.05;2.70;;;11.90;99.90;;;;;;5080848;28;20024;-76
2021/12/28 11:29:16;;;;;;;5.40;3.30;;;11.90;99.90;;;;;;5079949;28;20039;-77
2021/12/28 11:31:44;;;;;;;6.93;2.78;;;11.90;99.90;;;;;;5081507;28;20024;-79
2021/12/28 11:34:13;;;;;;;4.35;2.47;;;11.80;99.90;;;;;;5084612;28;20036;-75
2021/12/28 11:36:45;;;;;;;8.10;2.10;;;11.70;99.90;;;;;;5075986;28;20116;-83
2021/12/28 11:39:16;;;;;;;12.75;3.05;;;11.60;99.90;;;;;;5081439;28;20028;-81
2021/12/28 11:41:43;;;;;;;21.75;2.78;;;11.60;99.90;;;;;;5077942;28;20024;-81
2021/12/28 11:44:09;;;;;;;19.25;3.05;;;11.40;99.90;;;;;;5075064;28;20073;-81
2021/12/28 11:46:35;;;;;;;20.00;3.78;;;11.30;99.90;;;;;;5079772;28;20029;-79
2021/12/28 11:49:03;;;;;;;21.38;4.05;;;11.30;99.90;;;;;;5086381;28;20384;-80
2021/12/28 11:51:28;;;;;;;22.20;3.78;;;11.30;99.90;;;;;;5081922;28;20077;-81
2021/12/28 11:53:55;;;;;;;27.55;3.90;;;11.40;99.90;;;;;;5079880;28;20099;-79
2021/12/28 11:56:29;;;;;;;23.30;4.78;;;11.30;99.90;;;;;;5077431;28;20028;-79
2021/12/28 11:59:02;;;;;;;30.23;4.68;;;11.20;99.90;;;;;;5083137;28;20063;-77
2021/12/28 12:01:50;;;;;;;23.48;4.82;;;11.30;99.90;;;;;;5081027;28;20469;-78
2021/12/28 12:04:31;;;;;;;27.67;4.93;;;11.30;99.90;;;;;;5078854;28;20499;-78
2021/12/28 12:07:09;;;;;;;34.13;5.55;;;11.20;99.90;;;;;;5083481;28;20051;-78
2021/12/28 12:10:02;;;;;;;34.47;5.28;;;11.30;99.90;;;;;;5079687;28;20032;-79
2021/12/28 12:12:29;;;;;;;;;;;11.20;99.90;;;;;;5072312;28;20485;-76
2021/12/28 12:14:56;;;;;;;36.78;5.45;;;11.20;99.90;;;;;;5087406;28;20388;-79
2021/12/28 12:17:28;;;;;;;42.25;6.32;;;11.20;99.90;;;;;;5076731;28;20055;-78
2021/12/28 12:19:58;;;;;;;42.20;7.38;;;11.20;99.90;;;;;;5082299;28;20032;-79
2021/12/28 12:22:30;;;;;;;34.40;6.00;;;11.10;99.90;;;;;;5072834;28;20481;-79
2021/12/28 12:25:11;;;;;;;38.23;6.20;;;11.10;99.90;;;;;;5083502;28;20028;-78
2021/12/28 12:27:49;;;;;;;33.58;6.15;;;11.10;99.90;;;;;;5078797;28;20316;-78
2021/12/28 12:30:17;;;;;;;35.95;7.10;;;11.00;99.90;;;;;;5077776;28;20496;-78
2021/12/28 12:32:55;;;;;;;39.67;7.38;;;11.00;99.90;;;;;;5081410;28;20484;-79
2021/12/28 12:35:57;;;;;;;30.42;7.15;;;11.10;99.90;;;;;;5077987;28;20044;-79
2021/12/28 12:38:24;;;;;;;41.92;7.55;;;11.10;99.90;;;;;;5081527;28;20028;-79
2021/12/28 12:40:53;;;;;;;47.08;7.00;;;11.10;99.90;;;;;;5078860;28;20416;-78
2021/12/28 12:43:21;;;;;;;35.83;6.72;;;11.20;99.90;;;;;;5080688;28;20031;-79
2021/12/28 12:45:54;;;;;;;35.47;6.68;;;11.30;99.90;;;;;;5063958;28;20032;-79
2021/12/28 12:48:52;;;;;;;40.22;7.65;;;11.40;99.90;;;;;;5079046;28;20021;-79